sensor_id;sensor_type;location;lat;lon;timestamp;temperature;humidity
69335;SHT31;56477;52.742;15.242;2022-10-16T00:02:01;13.57;96.31
69335;SHT31;56477;52.742;15.242;2022-10-16T00:04:27;13.63;96.10
69335;SHT31;56477;52.742;15.242;2022-10-16T00:06:53;13.60;96.00
69335;SHT31;56477;52.742;15.242;2022-10-16T00:09:19;13.60;96.15
69335;SHT31;56477;52.742;15.242;2022-10-16T00:11:45;13.61;96.17
69335;SHT31;56477;52.742;15.242;2022-10-16T00:14:14;13.59;96.06
69335;SHT31;56477;52.742;15.242;2022-10-16T00:16:41;13.59;96.14
69335;SHT31;56477;52.742;15.242;2022-10-16T00:19:07;13.54;96.12
69335;SHT31;56477;52.742;15.242;2022-10-16T00:21:34;13.54;96.34
69335;SHT31;56477;52.742;15.242;2022-10-16T00:24:04;13.57;96.27
69335;SHT31;56477;52.742;15.242;2022-10-16T00:26:35;13.54;96.27
69335;SHT31;56477;52.742;15.242;2022-10-16T00:29:02;13.53;96.43
69335;SHT31;56477;52.742;15.242;2022-10-16T00:31:28;13.56;96.41
69335;SHT31;56477;52.742;15.242;2022-10-16T00:33:55;13.57;96.28
69335;SHT31;56477;52.742;15.242;2022-10-16T00:36:23;13.61;96.16
69335;SHT31;56477;52.742;15.242;2022-10-16T00:38:56;13.63;96.06
69335;SHT31;56477;52.742;15.242;2022-10-16T00:41:25;13.63;96.04
69335;SHT31;56477;52.742;15.242;2022-10-16T00:43:56;13.63;96.07
69335;SHT31;56477;52.742;15.242;2022-10-16T00:46:26;13.67;96.14
69335;SHT31;56477;52.742;15.242;2022-10-16T00:51:45;13.73;95.79
69335;SHT31;56477;52.742;15.242;2022-10-16T00:54:20;13.70;95.74
69335;SHT31;56477;52.742;15.242;2022-10-16T00:56:47;13.68;95.74
69335;SHT31;56477;52.742;15.242;2022-10-16T00:59:19;13.68;95.66
69335;SHT31;56477;52.742;15.242;2022-10-16T01:01:47;13.68;95.82
69335;SHT31;56477;52.742;15.242;2022-10-16T01:04:14;13.73;95.72
69335;SHT31;56477;52.742;15.242;2022-10-16T01:12:31;13.68;95.70
69335;SHT31;56477;52.742;15.242;2022-10-16T01:15:11;13.64;95.77
69335;SHT31;56477;52.742;15.242;2022-10-16T01:17:57;13.60;96.01
69335;SHT31;56477;52.742;15.242;2022-10-16T01:20:35;13.64;96.15
69335;SHT31;56477;52.742;15.242;2022-10-16T01:23:36;13.64;96.05
69335;SHT31;56477;52.742;15.242;2022-10-16T01:26:20;13.68;96.05
69335;SHT31;56477;52.742;15.242;2022-10-16T01:28:57;13.75;95.93
69335;SHT31;56477;52.742;15.242;2022-10-16T01:31:31;13.77;95.83
69335;SHT31;56477;52.742;15.242;2022-10-16T01:34:37;13.87;95.77
69335;SHT31;56477;52.742;15.242;2022-10-16T01:37:15;13.88;95.60
69335;SHT31;56477;52.742;15.242;2022-10-16T01:39:44;13.91;95.48
69335;SHT31;56477;52.742;15.242;2022-10-16T01:42:31;13.91;95.35
69335;SHT31;56477;52.742;15.242;2022-10-16T01:45:00;13.94;95.28
69335;SHT31;56477;52.742;15.242;2022-10-16T01:47:27;13.94;95.30
69335;SHT31;56477;52.742;15.242;2022-10-16T01:49:53;13.95;95.30
69335;SHT31;56477;52.742;15.242;2022-10-16T01:52:23;14.01;95.22
69335;SHT31;56477;52.742;15.242;2022-10-16T01:54:52;14.04;95.17
69335;SHT31;56477;52.742;15.242;2022-10-16T01:57:21;14.02;95.09
69335;SHT31;56477;52.742;15.242;2022-10-16T01:59:51;14.04;95.16
69335;SHT31;56477;52.742;15.242;2022-10-16T02:02:18;14.07;95.05
69335;SHT31;56477;52.742;15.242;2022-10-16T02:04:49;14.01;95.09
69335;SHT31;56477;52.742;15.242;2022-10-16T02:07:18;13.97;95.13
69335;SHT31;56477;52.742;15.242;2022-10-16T02:09:45;13.95;95.15
69335;SHT31;56477;52.742;15.242;2022-10-16T02:12:19;13.97;95.28
69335;SHT31;56477;52.742;15.242;2022-10-16T02:14:47;13.98;95.24
69335;SHT31;56477;52.742;15.242;2022-10-16T02:17:15;13.97;95.33
69335;SHT31;56477;52.742;15.242;2022-10-16T02:19:42;14.01;95.24
69335;SHT31;56477;52.742;15.242;2022-10-16T02:22:16;14.02;95.12
69335;SHT31;56477;52.742;15.242;2022-10-16T02:24:53;13.98;95.22
69335;SHT31;56477;52.742;15.242;2022-10-16T02:29:59;14.00;95.38
69335;SHT31;56477;52.742;15.242;2022-10-16T02:32:30;14.07;95.38
69335;SHT31;56477;52.742;15.242;2022-10-16T02:34:58;14.05;95.31
69335;SHT31;56477;52.742;15.242;2022-10-16T02:37:25;14.08;95.24
69335;SHT31;56477;52.742;15.242;2022-10-16T02:39:53;14.04;95.31
69335;SHT31;56477;52.742;15.242;2022-10-16T02:42:20;14.05;95.36
69335;SHT31;56477;52.742;15.242;2022-10-16T02:44:46;14.11;95.21
69335;SHT31;56477;52.742;15.242;2022-10-16T02:47:12;14.14;95.06
69335;SHT31;56477;52.742;15.242;2022-10-16T02:49:38;14.08;95.06
69335;SHT31;56477;52.742;15.242;2022-10-16T02:52:04;14.02;95.11
69335;SHT31;56477;52.742;15.242;2022-10-16T02:54:30;13.98;95.38
69335;SHT31;56477;52.742;15.242;2022-10-16T02:56:55;13.98;95.46
69335;SHT31;56477;52.742;15.242;2022-10-16T02:59:22;13.97;95.47
69335;SHT31;56477;52.742;15.242;2022-10-16T03:01:47;13.91;95.47
69335;SHT31;56477;52.742;15.242;2022-10-16T03:04:14;13.91;95.43
69335;SHT31;56477;52.742;15.242;2022-10-16T03:06:40;13.84;95.79
69335;SHT31;56477;52.742;15.242;2022-10-16T03:09:06;13.84;95.67
69335;SHT31;56477;52.742;15.242;2022-10-16T03:11:32;13.88;95.74
69335;SHT31;56477;52.742;15.242;2022-10-16T03:13:58;13.87;95.81
69335;SHT31;56477;52.742;15.242;2022-10-16T03:16:24;13.87;95.73
69335;SHT31;56477;52.742;15.242;2022-10-16T03:18:50;13.95;95.55
69335;SHT31;56477;52.742;15.242;2022-10-16T03:21:16;13.94;95.47
69335;SHT31;56477;52.742;15.242;2022-10-16T03:23:42;13.97;95.48
69335;SHT31;56477;52.742;15.242;2022-10-16T03:26:08;13.97;95.58
69335;SHT31;56477;52.742;15.242;2022-10-16T03:28:34;13.91;95.59
69335;SHT31;56477;52.742;15.242;2022-10-16T03:31:00;13.89;95.58
69335;SHT31;56477;52.742;15.242;2022-10-16T03:33:26;13.89;95.65
69335;SHT31;56477;52.742;15.242;2022-10-16T03:35:53;13.91;95.61
69335;SHT31;56477;52.742;15.242;2022-10-16T03:38:20;13.91;95.55
69335;SHT31;56477;52.742;15.242;2022-10-16T03:40:46;13.85;95.69
69335;SHT31;56477;52.742;15.242;2022-10-16T03:43:13;13.81;95.83
69335;SHT31;56477;52.742;15.242;2022-10-16T03:45:38;13.75;95.90
69335;SHT31;56477;52.742;15.242;2022-10-16T03:48:06;13.67;96.18
69335;SHT31;56477;52.742;15.242;2022-10-16T03:50:31;13.63;96.26
69335;SHT31;56477;52.742;15.242;2022-10-16T03:52:57;13.66;96.37
69335;SHT31;56477;52.742;15.242;2022-10-16T03:55:23;13.61;96.46
69335;SHT31;56477;52.742;15.242;2022-10-16T03:57:50;13.60;96.72
69335;SHT31;56477;52.742;15.242;2022-10-16T04:00:15;13.64;96.68
69335;SHT31;56477;52.742;15.242;2022-10-16T04:02:41;13.66;96.72
69335;SHT31;56477;52.742;15.242;2022-10-16T04:05:07;13.71;96.64
69335;SHT31;56477;52.742;15.242;2022-10-16T04:07:33;13.70;96.56
69335;SHT31;56477;52.742;15.242;2022-10-16T04:09:59;13.75;96.45
69335;SHT31;56477;52.742;15.242;2022-10-16T04:12:26;13.80;96.38
69335;SHT31;56477;52.742;15.242;2022-10-16T04:14:52;13.80;96.22
69335;SHT31;56477;52.742;15.242;2022-10-16T04:17:18;13.77;96.34
69335;SHT31;56477;52.742;15.242;2022-10-16T04:19:44;13.73;96.48
69335;SHT31;56477;52.742;15.242;2022-10-16T04:22:11;13.67;96.63
69335;SHT31;56477;52.742;15.242;2022-10-16T04:24:37;13.67;96.71
69335;SHT31;56477;52.742;15.242;2022-10-16T04:27:03;13.67;96.74
69335;SHT31;56477;52.742;15.242;2022-10-16T04:29:29;13.64;96.93
69335;SHT31;56477;52.742;15.242;2022-10-16T04:31:56;13.66;96.90
69335;SHT31;56477;52.742;15.242;2022-10-16T04:34:22;13.68;96.73
69335;SHT31;56477;52.742;15.242;2022-10-16T04:36:48;13.68;96.77
69335;SHT31;56477;52.742;15.242;2022-10-16T04:39:15;13.64;96.77
69335;SHT31;56477;52.742;15.242;2022-10-16T04:41:41;13.63;96.83
69335;SHT31;56477;52.742;15.242;2022-10-16T04:44:07;13.59;97.05
69335;SHT31;56477;52.742;15.242;2022-10-16T04:46:34;13.61;97.07
69335;SHT31;56477;52.742;15.242;2022-10-16T04:49:00;13.66;96.97
69335;SHT31;56477;52.742;15.242;2022-10-16T04:51:26;13.71;96.95
69335;SHT31;56477;52.742;15.242;2022-10-16T04:53:54;13.75;96.90
69335;SHT31;56477;52.742;15.242;2022-10-16T04:56:20;13.74;96.85
69335;SHT31;56477;52.742;15.242;2022-10-16T04:58:47;13.73;96.76
69335;SHT31;56477;52.742;15.242;2022-10-16T05:01:13;13.70;96.78
69335;SHT31;56477;52.742;15.242;2022-10-16T05:03:39;13.67;96.75
69335;SHT31;56477;52.742;15.242;2022-10-16T05:06:06;13.61;96.76
69335;SHT31;56477;52.742;15.242;2022-10-16T05:08:32;13.56;96.89
69335;SHT31;56477;52.742;15.242;2022-10-16T05:10:58;13.53;97.17
69335;SHT31;56477;52.742;15.242;2022-10-16T05:13:24;13.50;97.16
69335;SHT31;56477;52.742;15.242;2022-10-16T05:15:50;13.51;97.23
69335;SHT31;56477;52.742;15.242;2022-10-16T05:18:16;13.59;97.22
69335;SHT31;56477;52.742;15.242;2022-10-16T05:20:43;13.57;97.21
69335;SHT31;56477;52.742;15.242;2022-10-16T05:23:09;13.64;97.09
69335;SHT31;56477;52.742;15.242;2022-10-16T05:25:38;13.66;97.08
69335;SHT31;56477;52.742;15.242;2022-10-16T05:28:04;13.67;97.00
69335;SHT31;56477;52.742;15.242;2022-10-16T05:30:30;13.67;96.99
69335;SHT31;56477;52.742;15.242;2022-10-16T05:32:55;13.73;97.02
69335;SHT31;56477;52.742;15.242;2022-10-16T05:35:21;13.73;96.95
69335;SHT31;56477;52.742;15.242;2022-10-16T05:37:47;13.71;96.82
69335;SHT31;56477;52.742;15.242;2022-10-16T05:40:14;13.68;96.93
69335;SHT31;56477;52.742;15.242;2022-10-16T05:42:40;13.68;96.90
69335;SHT31;56477;52.742;15.242;2022-10-16T05:45:09;13.63;96.91
69335;SHT31;56477;52.742;15.242;2022-10-16T05:47:35;13.64;96.89
69335;SHT31;56477;52.742;15.242;2022-10-16T05:50:01;13.67;96.89
69335;SHT31;56477;52.742;15.242;2022-10-16T05:52:27;13.70;96.89
69335;SHT31;56477;52.742;15.242;2022-10-16T05:54:53;13.73;96.95
69335;SHT31;56477;52.742;15.242;2022-10-16T05:57:19;13.75;96.89
69335;SHT31;56477;52.742;15.242;2022-10-16T05:59:45;13.75;96.80
69335;SHT31;56477;52.742;15.242;2022-10-16T06:02:14;13.81;96.80
69335;SHT31;56477;52.742;15.242;2022-10-16T06:04:40;13.82;96.73
69335;SHT31;56477;52.742;15.242;2022-10-16T06:07:07;13.85;96.54
69335;SHT31;56477;52.742;15.242;2022-10-16T06:09:33;13.89;96.45
69335;SHT31;56477;52.742;15.242;2022-10-16T06:11:59;14.01;96.26
69335;SHT31;56477;52.742;15.242;2022-10-16T06:14:25;14.04;96.05
69335;SHT31;56477;52.742;15.242;2022-10-16T06:16:51;14.12;95.78
69335;SHT31;56477;52.742;15.242;2022-10-16T06:19:17;14.25;95.65
69335;SHT31;56477;52.742;15.242;2022-10-16T06:21:44;14.75;94.56
69335;SHT31;56477;52.742;15.242;2022-10-16T06:24:10;15.10;92.50
69335;SHT31;56477;52.742;15.242;2022-10-16T06:26:37;15.45;91.63
69335;SHT31;56477;52.742;15.242;2022-10-16T06:29:04;15.89;90.05
69335;SHT31;56477;52.742;15.242;2022-10-16T06:31:30;16.03;89.90
69335;SHT31;56477;52.742;15.242;2022-10-16T06:33:59;16.25;88.44
69335;SHT31;56477;52.742;15.242;2022-10-16T06:36:26;16.37;87.86
69335;SHT31;56477;52.742;15.242;2022-10-16T06:38:52;16.37;87.73
69335;SHT31;56477;52.742;15.242;2022-10-16T06:41:21;16.24;88.62
69335;SHT31;56477;52.742;15.242;2022-10-16T06:43:47;16.02;89.38
69335;SHT31;56477;52.742;15.242;2022-10-16T06:46:16;15.93;89.73
69335;SHT31;56477;52.742;15.242;2022-10-16T06:48:43;15.96;89.69
69335;SHT31;56477;52.742;15.242;2022-10-16T06:51:17;15.78;90.55
69335;SHT31;56477;52.742;15.242;2022-10-16T06:53:49;15.51;91.14
69335;SHT31;56477;52.742;15.242;2022-10-16T06:56:20;15.28;91.92
69335;SHT31;56477;52.742;15.242;2022-10-16T06:58:46;15.35;92.25
69335;SHT31;56477;52.742;15.242;2022-10-16T07:01:13;15.27;92.49
69335;SHT31;56477;52.742;15.242;2022-10-16T07:03:41;15.45;92.36
69335;SHT31;56477;52.742;15.242;2022-10-16T07:06:09;15.63;91.72
69335;SHT31;56477;52.742;15.242;2022-10-16T07:08:38;15.56;91.91
69335;SHT31;56477;52.742;15.242;2022-10-16T07:11:07;15.44;92.05
69335;SHT31;56477;52.742;15.242;2022-10-16T07:13:34;15.45;92.43
69335;SHT31;56477;52.742;15.242;2022-10-16T07:16:11;15.63;92.10
69335;SHT31;56477;52.742;15.242;2022-10-16T07:18:37;15.78;91.82
69335;SHT31;56477;52.742;15.242;2022-10-16T07:21:10;16.33;90.38
69335;SHT31;56477;52.742;15.242;2022-10-16T07:23:37;16.61;89.00
69335;SHT31;56477;52.742;15.242;2022-10-16T07:26:04;16.35;88.94
69335;SHT31;56477;52.742;15.242;2022-10-16T07:28:30;16.38;89.61
69335;SHT31;56477;52.742;15.242;2022-10-16T07:31:09;16.47;89.23
69335;SHT31;56477;52.742;15.242;2022-10-16T07:33:37;16.41;89.33
69335;SHT31;56477;52.742;15.242;2022-10-16T07:36:04;16.17;90.33
69335;SHT31;56477;52.742;15.242;2022-10-16T07:38:30;16.03;90.72
69335;SHT31;56477;52.742;15.242;2022-10-16T07:40:57;15.89;91.02
69335;SHT31;56477;52.742;15.242;2022-10-16T07:43:25;15.78;91.55
69335;SHT31;56477;52.742;15.242;2022-10-16T07:45:51;15.55;92.52
69335;SHT31;56477;52.742;15.242;2022-10-16T07:48:17;15.36;93.31
69335;SHT31;56477;52.742;15.242;2022-10-16T07:50:44;15.96;92.98
69335;SHT31;56477;52.742;15.242;2022-10-16T07:53:10;17.79;87.98
69335;SHT31;56477;52.742;15.242;2022-10-16T07:55:37;19.19;80.07
69335;SHT31;56477;52.742;15.242;2022-10-16T07:58:03;20.11;76.85
69335;SHT31;56477;52.742;15.242;2022-10-16T08:00:30;21.03;73.88
69335;SHT31;56477;52.742;15.242;2022-10-16T08:02:57;21.51;70.70
69335;SHT31;56477;52.742;15.242;2022-10-16T08:05:29;20.61;74.51
69335;SHT31;56477;52.742;15.242;2022-10-16T08:07:57;21.11;71.59
69335;SHT31;56477;52.742;15.242;2022-10-16T08:10:24;22.05;69.83
69335;SHT31;56477;52.742;15.242;2022-10-16T08:12:51;20.78;71.28
69335;SHT31;56477;52.742;15.242;2022-10-16T08:15:18;20.59;74.09
69335;SHT31;56477;52.742;15.242;2022-10-16T08:17:44;19.55;76.56
69335;SHT31;56477;52.742;15.242;2022-10-16T08:20:10;18.77;79.25
69335;SHT31;56477;52.742;15.242;2022-10-16T08:22:36;18.25;82.02
69335;SHT31;56477;52.742;15.242;2022-10-16T08:25:02;17.95;83.22
69335;SHT31;56477;52.742;15.242;2022-10-16T08:27:32;17.55;85.43
69335;SHT31;56477;52.742;15.242;2022-10-16T08:29:58;17.48;85.94
69335;SHT31;56477;52.742;15.242;2022-10-16T08:32:24;17.40;85.83
69335;SHT31;56477;52.742;15.242;2022-10-16T08:34:50;17.41;86.46
69335;SHT31;56477;52.742;15.242;2022-10-16T08:37:16;16.93;88.37
69335;SHT31;56477;52.742;15.242;2022-10-16T08:39:41;16.88;88.45
69335;SHT31;56477;52.742;15.242;2022-10-16T08:45:14;17.43;87.39
69335;SHT31;56477;52.742;15.242;2022-10-16T08:47:48;17.77;85.98
69335;SHT31;56477;52.742;15.242;2022-10-16T08:50:26;18.74;82.76
69335;SHT31;56477;52.742;15.242;2022-10-16T08:52:54;19.58;79.34
69335;SHT31;56477;52.742;15.242;2022-10-16T08:55:46;20.16;77.49
69335;SHT31;56477;52.742;15.242;2022-10-16T08:58:30;20.28;76.52
69335;SHT31;56477;52.742;15.242;2022-10-16T09:00:59;21.00;74.11
69335;SHT31;56477;52.742;15.242;2022-10-16T09:14:50;19.92;76.03
69335;SHT31;56477;52.742;15.242;2022-10-16T09:22:31;19.10;78.63
69335;SHT31;56477;52.742;15.242;2022-10-16T09:25:10;19.22;78.70
69335;SHT31;56477;52.742;15.242;2022-10-16T09:27:37;19.12;79.37
69335;SHT31;56477;52.742;15.242;2022-10-16T09:30:32;18.83;78.60
69335;SHT31;56477;52.742;15.242;2022-10-16T09:32:58;18.61;79.81
69335;SHT31;56477;52.742;15.242;2022-10-16T09:35:35;18.76;79.69
69335;SHT31;56477;52.742;15.242;2022-10-16T09:38:03;18.84;79.15
69335;SHT31;56477;52.742;15.242;2022-10-16T09:40:37;18.73;79.23
69335;SHT31;56477;52.742;15.242;2022-10-16T09:46:29;18.30;80.85
69335;SHT31;56477;52.742;15.242;2022-10-16T09:49:00;18.30;81.21
69335;SHT31;56477;52.742;15.242;2022-10-16T09:51:28;18.28;81.50
69335;SHT31;56477;52.742;15.242;2022-10-16T09:54:00;18.28;81.69
69335;SHT31;56477;52.742;15.242;2022-10-16T09:56:32;18.19;82.65
69335;SHT31;56477;52.742;15.242;2022-10-16T09:59:01;18.35;82.18
69335;SHT31;56477;52.742;15.242;2022-10-16T10:01:48;18.52;81.97
69335;SHT31;56477;52.742;15.242;2022-10-16T10:04:14;18.61;82.97
69335;SHT31;56477;52.742;15.242;2022-10-16T10:06:46;18.60;81.87
69335;SHT31;56477;52.742;15.242;2022-10-16T10:09:16;18.45;82.38
69335;SHT31;56477;52.742;15.242;2022-10-16T10:16:44;18.52;83.08
69335;SHT31;56477;52.742;15.242;2022-10-16T10:19:18;18.74;82.38
69335;SHT31;56477;52.742;15.242;2022-10-16T10:21:45;18.94;81.70
69335;SHT31;56477;52.742;15.242;2022-10-16T10:24:15;19.04;81.62
69335;SHT31;56477;52.742;15.242;2022-10-16T10:27:06;19.25;80.07
69335;SHT31;56477;52.742;15.242;2022-10-16T10:29:53;19.55;79.66
69335;SHT31;56477;52.742;15.242;2022-10-16T10:38:33;19.21;79.89
69335;SHT31;56477;52.742;15.242;2022-10-16T10:44:16;18.93;81.44
69335;SHT31;56477;52.742;15.242;2022-10-16T10:57:47;19.04;81.28
69335;SHT31;56477;52.742;15.242;2022-10-16T11:05:56;19.26;80.67
69335;SHT31;56477;52.742;15.242;2022-10-16T11:08:51;19.08;80.85
69335;SHT31;56477;52.742;15.242;2022-10-16T11:17:01;18.95;80.87
69335;SHT31;56477;52.742;15.242;2022-10-16T11:19:48;19.15;80.49
69335;SHT31;56477;52.742;15.242;2022-10-16T11:27:47;18.98;80.61
69335;SHT31;56477;52.742;15.242;2022-10-16T11:30:19;18.81;80.27
69335;SHT31;56477;52.742;15.242;2022-10-16T11:35:21;18.63;81.60
69335;SHT31;56477;52.742;15.242;2022-10-16T11:37:49;18.56;81.81
69335;SHT31;56477;52.742;15.242;2022-10-16T11:40:21;18.66;81.81
69335;SHT31;56477;52.742;15.242;2022-10-16T11:42:56;18.63;82.02
69335;SHT31;56477;52.742;15.242;2022-10-16T11:45:35;18.68;81.38
69335;SHT31;56477;52.742;15.242;2022-10-16T11:48:24;18.64;81.47
69335;SHT31;56477;52.742;15.242;2022-10-16T11:51:05;18.59;82.01
69335;SHT31;56477;52.742;15.242;2022-10-16T11:53:49;18.81;81.87
69335;SHT31;56477;52.742;15.242;2022-10-16T11:56:19;19.05;80.73
69335;SHT31;56477;52.742;15.242;2022-10-16T12:05:01;20.75;75.57
69335;SHT31;56477;52.742;15.242;2022-10-16T12:07:37;21.73;70.83
69335;SHT31;56477;52.742;15.242;2022-10-16T12:10:19;21.84;70.54
69335;SHT31;56477;52.742;15.242;2022-10-16T12:12:45;22.47;68.64
69335;SHT31;56477;52.742;15.242;2022-10-16T12:15:25;22.57;65.50
69335;SHT31;56477;52.742;15.242;2022-10-16T12:17:51;21.96;68.09
69335;SHT31;56477;52.742;15.242;2022-10-16T12:20:32;22.64;66.56
69335;SHT31;56477;52.742;15.242;2022-10-16T12:23:05;22.56;66.75
69335;SHT31;56477;52.742;15.242;2022-10-16T12:25:36;22.71;64.77
69335;SHT31;56477;52.742;15.242;2022-10-16T12:28:18;21.34;68.96
69335;SHT31;56477;52.742;15.242;2022-10-16T12:30:53;21.16;68.75
69335;SHT31;56477;52.742;15.242;2022-10-16T12:33:26;20.62;69.67
69335;SHT31;56477;52.742;15.242;2022-10-16T12:35:53;20.71;69.56
69335;SHT31;56477;52.742;15.242;2022-10-16T12:38:45;21.44;67.88
69335;SHT31;56477;52.742;15.242;2022-10-16T12:41:12;22.12;64.74
69335;SHT31;56477;52.742;15.242;2022-10-16T12:43:45;22.12;65.19
69335;SHT31;56477;52.742;15.242;2022-10-16T12:48:39;22.63;63.61
69335;SHT31;56477;52.742;15.242;2022-10-16T12:54:17;22.57;63.78
69335;SHT31;56477;52.742;15.242;2022-10-16T12:56:49;22.65;62.78
69335;SHT31;56477;52.742;15.242;2022-10-16T13:22:31;20.31;67.79
69335;SHT31;56477;52.742;15.242;2022-10-16T13:28:04;20.86;65.31
69335;SHT31;56477;52.742;15.242;2022-10-16T13:30:40;20.69;66.05
69335;SHT31;56477;52.742;15.242;2022-10-16T13:33:17;20.88;65.77
69335;SHT31;56477;52.742;15.242;2022-10-16T13:35:51;20.59;65.97
69335;SHT31;56477;52.742;15.242;2022-10-16T13:38:20;20.61;66.37
69335;SHT31;56477;52.742;15.242;2022-10-16T13:41:00;21.06;65.86
69335;SHT31;56477;52.742;15.242;2022-10-16T13:43:34;20.80;66.32
69335;SHT31;56477;52.742;15.242;2022-10-16T13:46:14;20.62;67.04
69335;SHT31;56477;52.742;15.242;2022-10-16T13:48:41;21.04;65.89
69335;SHT31;56477;52.742;15.242;2022-10-16T13:51:16;21.31;64.52
69335;SHT31;56477;52.742;15.242;2022-10-16T13:53:43;21.61;63.64
69335;SHT31;56477;52.742;15.242;2022-10-16T13:56:15;21.38;63.01
69335;SHT31;56477;52.742;15.242;2022-10-16T13:58:41;21.69;62.82
69335;SHT31;56477;52.742;15.242;2022-10-16T14:03:41;21.51;62.42
69335;SHT31;56477;52.742;15.242;2022-10-16T14:06:14;21.50;62.79
69335;SHT31;56477;52.742;15.242;2022-10-16T14:08:45;21.71;62.19
69335;SHT31;56477;52.742;15.242;2022-10-16T14:11:23;21.88;61.36
69335;SHT31;56477;52.742;15.242;2022-10-16T14:13:51;21.82;61.24
69335;SHT31;56477;52.742;15.242;2022-10-16T14:16:25;21.59;61.71
69335;SHT31;56477;52.742;15.242;2022-10-16T14:19:02;21.59;61.86
69335;SHT31;56477;52.742;15.242;2022-10-16T14:21:29;21.59;61.60
69335;SHT31;56477;52.742;15.242;2022-10-16T14:23:56;21.58;61.25
69335;SHT31;56477;52.742;15.242;2022-10-16T14:26:24;21.59;61.52
69335;SHT31;56477;52.742;15.242;2022-10-16T14:29:11;21.68;61.47
69335;SHT31;56477;52.742;15.242;2022-10-16T14:31:37;21.88;60.33
69335;SHT31;56477;52.742;15.242;2022-10-16T14:34:30;21.73;60.57
69335;SHT31;56477;52.742;15.242;2022-10-16T14:37:09;21.69;60.15
69335;SHT31;56477;52.742;15.242;2022-10-16T14:39:40;21.40;61.25
69335;SHT31;56477;52.742;15.242;2022-10-16T14:42:22;21.22;61.33
69335;SHT31;56477;52.742;15.242;2022-10-16T14:44:53;21.04;62.01
69335;SHT31;56477;52.742;15.242;2022-10-16T14:47:22;21.03;62.66
69335;SHT31;56477;52.742;15.242;2022-10-16T14:49:51;20.93;62.54
69335;SHT31;56477;52.742;15.242;2022-10-16T14:52:17;20.83;62.87
69335;SHT31;56477;52.742;15.242;2022-10-16T14:54:48;20.52;63.76
69335;SHT31;56477;52.742;15.242;2022-10-16T14:57:19;20.10;65.10
69335;SHT31;56477;52.742;15.242;2022-10-16T14:59:47;19.77;65.92
69335;SHT31;56477;52.742;15.242;2022-10-16T15:04:40;19.45;66.62
69335;SHT31;56477;52.742;15.242;2022-10-16T15:07:07;19.58;66.58
69335;SHT31;56477;52.742;15.242;2022-10-16T15:09:33;19.79;66.26
69335;SHT31;56477;52.742;15.242;2022-10-16T15:11:59;19.92;65.35
69335;SHT31;56477;52.742;15.242;2022-10-16T15:14:25;19.96;65.31
69335;SHT31;56477;52.742;15.242;2022-10-16T15:16:51;19.76;66.27
69335;SHT31;56477;52.742;15.242;2022-10-16T15:19:21;19.63;66.18
69335;SHT31;56477;52.742;15.242;2022-10-16T15:21:47;19.43;66.84
69335;SHT31;56477;52.742;15.242;2022-10-16T15:24:15;19.52;66.67
69335;SHT31;56477;52.742;15.242;2022-10-16T15:26:41;19.62;65.97
69335;SHT31;56477;52.742;15.242;2022-10-16T15:29:09;19.69;65.71
69335;SHT31;56477;52.742;15.242;2022-10-16T15:31:35;19.69;66.05
69335;SHT31;56477;52.742;15.242;2022-10-16T15:34:01;19.39;66.80
69335;SHT31;56477;52.742;15.242;2022-10-16T15:36:33;19.12;67.48
69335;SHT31;56477;52.742;15.242;2022-10-16T15:39:08;18.93;68.25
69335;SHT31;56477;52.742;15.242;2022-10-16T15:41:36;18.76;69.05
69335;SHT31;56477;52.742;15.242;2022-10-16T15:44:02;18.63;69.70
69335;SHT31;56477;52.742;15.242;2022-10-16T15:46:28;18.55;69.84
69335;SHT31;56477;52.742;15.242;2022-10-16T15:48:57;18.47;70.33
69335;SHT31;56477;52.742;15.242;2022-10-16T15:51:24;18.40;70.49
69335;SHT31;56477;52.742;15.242;2022-10-16T15:53:50;18.36;70.76
69335;SHT31;56477;52.742;15.242;2022-10-16T15:56:17;18.22;71.17
69335;SHT31;56477;52.742;15.242;2022-10-16T15:58:43;18.18;71.55
69335;SHT31;56477;52.742;15.242;2022-10-16T16:01:10;18.10;71.84
69335;SHT31;56477;52.742;15.242;2022-10-16T16:03:38;18.02;72.33
69335;SHT31;56477;52.742;15.242;2022-10-16T16:06:08;17.94;72.54
69335;SHT31;56477;52.742;15.242;2022-10-16T16:08:35;17.92;72.71
69335;SHT31;56477;52.742;15.242;2022-10-16T16:11:07;17.88;72.99
69335;SHT31;56477;52.742;15.242;2022-10-16T16:13:34;17.81;73.50
69335;SHT31;56477;52.742;15.242;2022-10-16T16:16:06;17.73;74.44
69335;SHT31;56477;52.742;15.242;2022-10-16T16:18:33;17.64;74.88
69335;SHT31;56477;52.742;15.242;2022-10-16T16:20:58;17.55;75.27
69335;SHT31;56477;52.742;15.242;2022-10-16T16:23:25;17.53;75.55
69335;SHT31;56477;52.742;15.242;2022-10-16T16:26:11;17.40;76.10
69335;SHT31;56477;52.742;15.242;2022-10-16T16:28:39;17.30;76.49
69335;SHT31;56477;52.742;15.242;2022-10-16T16:31:05;17.24;76.78
69335;SHT31;56477;52.742;15.242;2022-10-16T16:33:32;17.20;76.88
69335;SHT31;56477;52.742;15.242;2022-10-16T16:35:59;17.23;76.92
69335;SHT31;56477;52.742;15.242;2022-10-16T16:38:26;17.19;77.17
69335;SHT31;56477;52.742;15.242;2022-10-16T16:40:52;17.15;77.29
69335;SHT31;56477;52.742;15.242;2022-10-16T16:43:22;17.15;77.40
69335;SHT31;56477;52.742;15.242;2022-10-16T16:45:48;17.12;77.62
69335;SHT31;56477;52.742;15.242;2022-10-16T16:48:14;17.09;77.74
69335;SHT31;56477;52.742;15.242;2022-10-16T16:50:40;17.09;77.81
69335;SHT31;56477;52.742;15.242;2022-10-16T16:53:06;17.03;78.00
69335;SHT31;56477;52.742;15.242;2022-10-16T16:55:33;16.99;78.18
69335;SHT31;56477;52.742;15.242;2022-10-16T16:57:59;16.99;78.07
69335;SHT31;56477;52.742;15.242;2022-10-16T17:00:25;16.98;78.35
69335;SHT31;56477;52.742;15.242;2022-10-16T17:02:52;16.93;78.36
69335;SHT31;56477;52.742;15.242;2022-10-16T17:05:18;16.86;78.54
69335;SHT31;56477;52.742;15.242;2022-10-16T17:07:44;16.83;78.72
69335;SHT31;56477;52.742;15.242;2022-10-16T17:10:10;16.79;79.58
69335;SHT31;56477;52.742;15.242;2022-10-16T17:12:36;16.78;79.07
69335;SHT31;56477;52.742;15.242;2022-10-16T17:15:02;16.69;79.42
69335;SHT31;56477;52.742;15.242;2022-10-16T17:17:28;16.61;79.64
69335;SHT31;56477;52.742;15.242;2022-10-16T17:19:54;16.54;80.32
69335;SHT31;56477;52.742;15.242;2022-10-16T17:22:20;16.55;79.91
69335;SHT31;56477;52.742;15.242;2022-10-16T17:24:50;16.58;79.60
69335;SHT31;56477;52.742;15.242;2022-10-16T17:27:17;16.61;79.43
69335;SHT31;56477;52.742;15.242;2022-10-16T17:29:43;16.62;79.31
69335;SHT31;56477;52.742;15.242;2022-10-16T17:32:09;16.51;80.64